createdAt,value
2022-09-09T00:01:32.442Z,1.83
2022-09-09T00:04:05.580Z,2.17
2022-09-09T00:06:37.341Z,2.13
2022-09-09T00:09:14.047Z,2.13
2022-09-09T00:11:45.388Z,2.08
2022-09-09T00:14:25.316Z,1.90
2022-09-09T00:17:01.036Z,2.10
2022-09-09T00:19:41.085Z,1.73
2022-09-09T00:22:18.240Z,1.80
2022-09-09T00:24:47.993Z,1.75
2022-09-09T00:27:28.220Z,1.87
2022-09-09T00:29:59.708Z,1.60
2022-09-09T00:32:32.288Z,1.42
2022-09-09T00:35:14.239Z,1.20
2022-09-09T00:37:43.009Z,1.10
2022-09-09T00:40:24.355Z,1.10
2022-09-09T00:43:01.931Z,1.27
2022-09-09T00:45:53.207Z,1.08
2022-09-09T00:48:25.931Z,1.10
2022-09-09T00:50:59.368Z,1.10
2022-09-09T00:53:35.919Z,1.40
2022-09-09T00:56:13.695Z,1.58
2022-09-09T00:58:44.664Z,1.40
2022-09-09T01:01:14.452Z,1.30
2022-09-09T01:03:49.635Z,1.52
2022-09-09T01:06:24.678Z,1.00
2022-09-09T01:09:12.045Z,1.30
2022-09-09T01:11:53.926Z,1.10
2022-09-09T01:14:33.162Z,1.05
2022-09-09T01:17:06.494Z,1.30
2022-09-09T01:19:46.584Z,1.30
2022-09-09T01:22:28.297Z,1.40
2022-09-09T01:25:17.663Z,1.20
2022-09-09T01:28:10.876Z,1.05
2022-09-09T01:30:42.469Z,1.20
2022-09-09T01:33:16.957Z,1.13
2022-09-09T01:35:51.722Z,1.02
2022-09-09T01:38:20.631Z,1.08
2022-09-09T01:40:53.370Z,1.40
2022-09-09T01:43:28.548Z,1.70
2022-09-09T01:46:02.553Z,1.52
2022-09-09T01:48:32.338Z,1.65
2022-09-09T01:51:06.162Z,1.60
2022-09-09T01:53:33.937Z,1.35
2022-09-09T01:56:24.406Z,1.10
2022-09-09T01:59:10.360Z,0.85
2022-09-09T02:01:48.459Z,1.10
2022-09-09T02:04:31.195Z,1.00
2022-09-09T02:06:59.963Z,1.20
2022-09-09T02:09:32.587Z,0.80
2022-09-09T02:12:08.260Z,1.10
2022-09-09T02:14:51.226Z,1.00
2022-09-09T02:17:26.872Z,0.80
2022-09-09T02:20:07.171Z,0.90
2022-09-09T02:22:46.634Z,0.80
2022-09-09T02:25:19.819Z,0.90
2022-09-09T02:27:51.919Z,1.10
2022-09-09T02:30:22.256Z,1.05
2022-09-09T02:32:59.024Z,0.85
2022-09-09T02:35:40.635Z,0.93
2022-09-09T02:38:14.213Z,0.98
2022-09-09T02:40:46.694Z,0.95
2022-09-09T02:43:17.297Z,1.10
2022-09-09T02:45:55.224Z,1.20
2022-09-09T02:48:32.265Z,1.20
2022-09-09T02:51:08.089Z,1.10
2022-09-09T02:53:48.885Z,1.10
2022-09-09T02:56:19.179Z,1.23
2022-09-09T02:58:50.393Z,1.05
2022-09-09T03:01:19.681Z,1.10
2022-09-09T03:03:47.536Z,1.20
2022-09-09T03:06:17.803Z,0.93
2022-09-09T03:08:50.846Z,0.93
2022-09-09T03:11:23.820Z,0.90
2022-09-09T03:13:51.693Z,1.00
2022-09-09T03:16:23.860Z,0.90
2022-09-09T03:18:54.079Z,1.40
2022-09-09T03:21:22.278Z,2.00
2022-09-09T03:23:50.856Z,2.13
2022-09-09T03:26:18.760Z,1.70
2022-09-09T03:28:48.446Z,2.05
2022-09-09T03:31:20.765Z,1.42
2022-09-09T03:33:50.112Z,1.95
2022-09-09T03:36:20.194Z,1.67
2022-09-09T03:38:47.934Z,1.38
2022-09-09T03:41:15.758Z,1.98
2022-09-09T03:43:44.181Z,1.50
2022-09-09T03:46:12.052Z,1.50
2022-09-09T03:48:40.443Z,1.33
2022-09-09T03:51:09.602Z,1.48
2022-09-09T03:53:39.005Z,1.45
2022-09-09T03:56:08.622Z,1.35
2022-09-09T03:58:37.728Z,1.10
2022-09-09T04:01:10.605Z,1.20
2022-09-09T04:03:39.880Z,1.20
2022-09-09T04:06:12.814Z,1.13
2022-09-09T04:08:41.150Z,1.33
2022-09-09T04:11:09.660Z,1.13
2022-09-09T04:13:40.778Z,1.57
2022-09-09T04:16:14.064Z,1.40
2022-09-09T04:18:43.106Z,2.23
2022-09-09T04:21:13.040Z,1.98
2022-09-09T04:23:41.677Z,1.70
2022-09-09T04:26:10.989Z,1.47
2022-09-09T04:28:40.472Z,1.63
2022-09-09T04:31:19.646Z,2.00
2022-09-09T04:33:49.298Z,2.10
2022-09-09T04:36:20.276Z,2.20
2022-09-09T04:38:50.508Z,2.20
2022-09-09T04:41:18.894Z,1.90
2022-09-09T04:43:49.933Z,1.70
2022-09-09T04:46:18.883Z,2.00
2022-09-09T04:48:50.385Z,1.73
2022-09-09T04:51:20.668Z,2.10
2022-09-09T04:53:51.748Z,1.48
2022-09-09T04:56:20.422Z,1.30
2022-09-09T04:58:57.649Z,1.33
2022-09-09T05:01:35.187Z,1.20
2022-09-09T05:04:05.406Z,1.42
2022-09-09T05:06:37.239Z,1.52
2022-09-09T05:09:06.105Z,1.33
2022-09-09T05:11:37.678Z,1.33
2022-09-09T05:14:18.537Z,1.00
2022-09-09T05:16:48.072Z,1.23
2022-09-09T05:19:16.101Z,1.10
2022-09-09T05:21:48.311Z,1.08
2022-09-09T05:24:19.632Z,0.90
2022-09-09T05:26:49.535Z,1.20
2022-09-09T05:29:19.568Z,1.70
2022-09-09T05:31:48.109Z,1.07
2022-09-09T05:34:20.550Z,1.15
2022-09-09T05:36:49.955Z,1.20
2022-09-09T05:39:18.118Z,1.30
2022-09-09T05:41:46.099Z,1.58
2022-09-09T05:44:14.440Z,1.50
2022-09-09T05:46:42.427Z,1.60
2022-09-09T05:49:10.906Z,1.30
2022-09-09T05:51:40.541Z,1.30
2022-09-09T05:54:16.492Z,1.60
2022-09-09T05:56:51.839Z,1.30
2022-09-09T05:59:21.042Z,1.23
2022-09-09T06:01:49.695Z,1.52
2022-09-09T06:04:33.228Z,1.00
2022-09-09T06:07:02.895Z,1.80
2022-09-09T06:09:33.385Z,1.38
2022-09-09T06:12:01.408Z,1.90
2022-09-09T06:14:29.437Z,1.60
2022-09-09T06:17:00.752Z,1.57
2022-09-09T06:19:32.494Z,1.42
2022-09-09T06:22:01.721Z,2.00
2022-09-09T06:24:36.863Z,1.50
2022-09-09T06:27:06.512Z,1.70
2022-09-09T06:29:36.795Z,1.42
2022-09-09T06:32:05.918Z,1.55
2022-09-09T06:34:34.030Z,1.50
2022-09-09T06:37:02.299Z,1.20
2022-09-09T06:39:45.913Z,1.15
2022-09-09T06:42:13.719Z,1.10
2022-09-09T06:44:57.999Z,1.60
2022-09-09T06:47:36.552Z,1.70
2022-09-09T06:50:08.389Z,0.98
2022-09-09T06:52:37.221Z,0.90
2022-09-09T06:55:09.292Z,0.93
2022-09-09T06:57:40.182Z,0.98
2022-09-09T07:00:15.360Z,1.05
2022-09-09T07:02:43.362Z,1.30
2022-09-09T07:05:12.685Z,1.13
2022-09-09T07:07:42.809Z,1.05
2022-09-09T07:10:13.905Z,1.30
2022-09-09T07:12:41.720Z,1.00
2022-09-09T07:15:12.346Z,0.80
2022-09-09T07:17:44.232Z,1.02
2022-09-09T07:20:12.506Z,0.80
2022-09-09T07:22:42.949Z,1.20
2022-09-09T07:25:12.413Z,1.20
2022-09-09T07:27:41.653Z,1.50
2022-09-09T07:30:10.968Z,1.13
2022-09-09T07:32:40.737Z,1.40
2022-09-09T07:35:09.193Z,1.90
2022-09-09T07:37:38.716Z,1.73
2022-09-09T07:40:07.663Z,1.33
2022-09-09T07:42:36.411Z,1.55
2022-09-09T07:45:10.518Z,1.80
2022-09-09T07:47:38.607Z,1.40
2022-09-09T07:50:07.133Z,1.75
2022-09-09T07:52:36.112Z,1.77
2022-09-09T07:55:07.446Z,1.50
2022-09-09T07:57:35.317Z,1.33
2022-09-09T08:00:05.992Z,0.98
2022-09-09T08:02:41.537Z,1.30
2022-09-09T08:05:13.599Z,1.25
2022-09-09T08:07:41.982Z,1.20
2022-09-09T08:10:10.211Z,0.80
2022-09-09T08:12:47.708Z,1.10
2022-09-09T08:15:24.450Z,0.95
2022-09-09T08:17:53.605Z,1.30
2022-09-09T08:20:21.365Z,0.90
2022-09-09T08:22:50.844Z,1.10
2022-09-09T08:25:18.705Z,1.00
2022-09-09T08:27:46.660Z,1.08
2022-09-09T08:30:15.062Z,0.90
2022-09-09T08:32:45.934Z,1.20
2022-09-09T08:35:15.941Z,0.90
2022-09-09T08:37:43.797Z,0.85
2022-09-09T08:40:24.154Z,1.00
2022-09-09T08:42:58.073Z,1.02
2022-09-09T08:45:40.238Z,0.90
2022-09-09T08:48:19.979Z,0.90
2022-09-09T08:50:53.027Z,0.75
2022-09-09T08:53:31.336Z,0.80
2022-09-09T08:56:05.499Z,0.90
2022-09-09T08:58:49.791Z,0.98
2022-09-09T09:01:40.525Z,1.00
2022-09-09T09:04:22.724Z,0.95
2022-09-09T09:07:03.557Z,1.02
2022-09-09T09:09:46.246Z,0.90
2022-09-09T09:12:20.429Z,1.10
2022-09-09T09:14:49.938Z,0.98
2022-09-09T09:17:21.454Z,0.95
2022-09-09T09:19:51.633Z,0.80
2022-09-09T09:22:23.249Z,0.98
2022-09-09T09:24:57.796Z,1.10
2022-09-09T09:27:34.066Z,1.20
2022-09-09T09:30:26.811Z,0.77
2022-09-09T09:33:03.257Z,0.87
2022-09-09T09:35:31.799Z,1.00
2022-09-09T09:40:53.935Z,0.95
2022-09-09T09:43:26.271Z,1.00
2022-09-09T09:46:14.360Z,0.90
2022-09-09T09:48:42.087Z,0.82
2022-09-09T09:51:16.487Z,0.80
2022-09-09T09:53:47.313Z,0.70
2022-09-09T09:56:17.174Z,0.73
2022-09-09T09:58:52.520Z,0.73
2022-09-09T10:01:28.677Z,0.60
2022-09-09T10:04:00.989Z,0.80
2022-09-09T10:06:34.048Z,0.70
2022-09-09T10:09:05.382Z,0.77
2022-09-09T10:11:46.674Z,0.70
2022-09-09T10:14:22.720Z,0.65
2022-09-09T10:17:04.061Z,0.65
2022-09-09T10:19:34.571Z,0.90
2022-09-09T10:22:18.384Z,0.70
2022-09-09T10:25:08.853Z,0.77
2022-09-09T10:27:47.934Z,0.88
2022-09-09T10:30:20.418Z,0.65
2022-09-09T10:32:53.037Z,0.70
2022-09-09T10:35:29.255Z,0.90
2022-09-09T10:38:14.789Z,0.70
2022-09-09T10:41:03.527Z,0.80
2022-09-09T10:43:56.356Z,1.33
2022-09-09T10:46:36.974Z,0.70
2022-09-09T10:49:22.996Z,0.80
2022-09-09T10:51:59.929Z,1.00
2022-09-09T10:54:52.609Z,0.88
2022-09-09T10:57:31.257Z,0.68
2022-09-09T11:00:05.295Z,0.90
2022-09-09T11:02:35.508Z,1.10
2022-09-09T11:05:10.821Z,0.77
2022-09-09T11:07:44.141Z,0.80
2022-09-09T11:10:25.239Z,0.80
2022-09-09T11:13:00.103Z,0.80
2022-09-09T11:15:33.615Z,0.90
2022-09-09T11:18:03.821Z,1.13
2022-09-09T11:20:33.131Z,0.83
2022-09-09T11:23:06.265Z,0.70
2022-09-09T11:25:39.097Z,0.93
2022-09-09T11:28:32.107Z,0.70
2022-09-09T11:31:23.535Z,0.93
2022-09-09T11:34:05.263Z,1.10
2022-09-09T11:36:49.387Z,1.20
2022-09-09T11:39:38.493Z,1.20
2022-09-09T11:42:17.668Z,0.88
2022-09-09T11:44:47.263Z,0.83
2022-09-09T11:47:25.507Z,0.70
2022-09-09T11:49:54.609Z,0.70
2022-09-09T11:52:26.604Z,0.80
2022-09-09T11:54:57.340Z,0.70
2022-09-09T11:57:32.834Z,0.60
2022-09-09T12:00:02.040Z,0.60
2022-09-09T12:02:50.561Z,0.50
2022-09-09T12:05:20.860Z,0.50
2022-09-09T12:07:55.639Z,0.50
2022-09-09T12:10:28.859Z,0.60
2022-09-09T12:12:56.704Z,0.57
2022-09-09T12:15:30.221Z,0.40
2022-09-09T12:18:03.844Z,0.40
2022-09-09T12:20:37.422Z,0.50
2022-09-09T12:23:26.086Z,0.50
2022-09-09T12:26:06.638Z,0.50
2022-09-09T12:28:49.913Z,0.73
2022-09-09T12:31:26.877Z,0.50
2022-09-09T12:33:54.649Z,0.50
2022-09-09T12:36:26.915Z,0.70
2022-09-09T12:38:55.711Z,0.70
2022-09-09T12:41:26.274Z,0.70
2022-09-09T12:44:06.903Z,0.52
2022-09-09T12:46:38.559Z,0.40
2022-09-09T12:49:07.534Z,0.60
2022-09-09T12:51:36.110Z,0.70
2022-09-09T12:54:05.234Z,0.50
2022-09-09T12:56:35.099Z,0.50
2022-09-09T12:59:03.180Z,0.60
2022-09-09T13:01:33.272Z,0.75
2022-09-09T13:04:02.779Z,0.70
2022-09-09T13:06:32.291Z,0.57
2022-09-09T13:09:01.518Z,0.68
2022-09-09T13:11:34.034Z,0.60
2022-09-09T13:14:02.014Z,0.70
2022-09-09T13:16:32.862Z,0.60
2022-09-09T13:19:08.978Z,0.60
2022-09-09T13:21:41.287Z,0.60
2022-09-09T13:24:28.397Z,0.55
2022-09-09T13:26:58.429Z,0.70
2022-09-09T13:29:26.730Z,0.67
2022-09-09T13:31:56.672Z,0.70
2022-09-09T13:34:31.937Z,0.60
2022-09-09T13:37:03.577Z,0.63
2022-09-09T13:39:31.709Z,0.73
2022-09-09T13:41:59.814Z,0.73
2022-09-09T13:44:31.037Z,0.68
2022-09-09T13:47:09.412Z,0.73
2022-09-09T13:49:39.541Z,0.57
2022-09-09T13:52:12.065Z,0.63
2022-09-09T13:54:40.254Z,0.90
2022-09-09T13:57:15.944Z,0.77
2022-09-09T14:00:01.620Z,0.80
2022-09-09T14:02:32.086Z,0.70
2022-09-09T14:05:03.815Z,0.70
2022-09-09T14:07:31.668Z,0.67
2022-09-09T14:10:01.090Z,0.70
2022-09-09T14:12:29.087Z,0.50
2022-09-09T14:15:00.648Z,0.52
2022-09-09T14:17:32.138Z,0.50
2022-09-09T14:20:00.249Z,0.60
2022-09-09T14:22:29.477Z,0.80
2022-09-09T14:24:58.538Z,0.55
2022-09-09T14:27:26.886Z,0.45
2022-09-09T14:29:55.440Z,0.50
2022-09-09T14:32:23.244Z,0.60
2022-09-09T14:34:51.549Z,0.40
2022-09-09T14:37:20.095Z,0.43
2022-09-09T14:39:52.393Z,0.50
2022-09-09T14:42:20.890Z,0.60
2022-09-09T14:44:48.798Z,0.50
2022-09-09T14:47:16.541Z,0.55
2022-09-09T14:49:46.577Z,0.60
2022-09-09T14:52:17.580Z,0.50
2022-09-09T14:54:45.426Z,0.50
2022-09-09T14:57:14.850Z,0.70
2022-09-09T14:59:42.624Z,0.50
2022-09-09T15:02:11.415Z,0.70
2022-09-09T15:04:39.294Z,0.50
2022-09-09T15:07:07.157Z,0.55
2022-09-09T15:09:38.243Z,0.70
2022-09-09T15:12:06.644Z,0.55
2022-09-09T15:14:36.173Z,0.60
2022-09-09T15:17:04.009Z,0.50
2022-09-09T15:19:33.342Z,0.70
2022-09-09T15:22:01.434Z,0.50
2022-09-09T15:24:29.653Z,0.80
2022-09-09T15:26:57.583Z,0.50
2022-09-09T15:29:25.420Z,0.50
2022-09-09T15:31:55.350Z,0.50
2022-09-09T15:34:26.420Z,0.40
2022-09-09T15:36:56.304Z,0.40
2022-09-09T15:39:24.213Z,0.40
2022-09-09T15:41:52.133Z,0.47
2022-09-09T15:44:20.823Z,0.40
2022-09-09T15:46:52.320Z,0.50
2022-09-09T15:49:24.221Z,0.50
2022-09-09T15:51:54.346Z,0.70
2022-09-09T15:54:24.770Z,0.60
2022-09-09T15:56:55.814Z,0.70
2022-09-09T15:59:26.674Z,0.40
2022-09-09T16:01:55.457Z,0.50
2022-09-09T16:04:26.290Z,0.55
2022-09-09T16:06:55.638Z,0.50
2022-09-09T16:09:23.777Z,0.50
2022-09-09T16:11:52.905Z,0.50
2022-09-09T16:14:20.976Z,0.63
2022-09-09T16:16:49.225Z,0.70
2022-09-09T16:19:19.763Z,1.00
2022-09-09T16:21:50.531Z,0.80
2022-09-09T16:24:20.390Z,0.70
2022-09-09T16:26:50.050Z,0.73
2022-09-09T16:29:19.425Z,0.40
2022-09-09T16:31:49.201Z,0.50
2022-09-09T16:34:18.318Z,0.40
2022-09-09T16:36:47.164Z,0.40
2022-09-09T16:39:17.533Z,0.70
2022-09-09T16:41:46.968Z,0.50
2022-09-09T16:44:16.560Z,0.60
2022-09-09T16:46:45.520Z,0.30
2022-09-09T16:49:15.718Z,0.35
2022-09-09T16:51:45.658Z,0.60
2022-09-09T16:54:14.827Z,0.88
2022-09-09T16:56:46.168Z,0.40
2022-09-09T16:59:17.825Z,0.40
2022-09-09T17:01:47.829Z,0.50
2022-09-09T17:04:22.124Z,0.50
2022-09-09T17:06:51.972Z,0.40
2022-09-09T17:09:21.135Z,0.57
2022-09-09T17:11:51.740Z,0.63
2022-09-09T17:14:22.997Z,0.90
2022-09-09T17:16:52.131Z,1.00
2022-09-09T17:19:21.936Z,0.80
2022-09-09T17:22:14.872Z,0.60
2022-09-09T17:24:41.309Z,0.40
2022-09-09T17:27:11.033Z,0.38
2022-09-09T17:29:42.493Z,0.40
2022-09-09T17:32:11.215Z,0.50
2022-09-09T17:34:42.860Z,0.50
2022-09-09T17:37:12.345Z,0.40
2022-09-09T17:39:40.190Z,0.50
2022-09-09T17:42:08.768Z,0.52
2022-09-09T17:44:38.112Z,0.53
2022-09-09T17:47:07.085Z,0.80
2022-09-09T17:49:34.940Z,0.83
2022-09-09T17:52:02.918Z,0.50
2022-09-09T17:54:30.774Z,0.50
2022-09-09T17:57:00.321Z,0.52
2022-09-09T17:59:30.196Z,0.40
2022-09-09T18:01:59.473Z,0.50
2022-09-09T18:04:27.383Z,0.60
2022-09-09T18:06:58.266Z,0.70
2022-09-09T18:09:29.246Z,0.70
2022-09-09T18:11:59.041Z,0.50
2022-09-09T18:14:30.121Z,0.80
2022-09-09T18:17:00.147Z,0.95
2022-09-09T18:19:30.674Z,0.70
2022-09-09T18:22:01.774Z,0.82
2022-09-09T18:24:30.859Z,0.50
2022-09-09T18:26:58.787Z,0.60
2022-09-09T18:29:26.890Z,0.70
2022-09-09T18:31:55.995Z,0.50
2022-09-09T18:34:28.514Z,0.70
2022-09-09T18:36:56.854Z,0.77
2022-09-09T18:39:27.655Z,0.60
2022-09-09T18:41:56.733Z,0.80
2022-09-09T18:44:27.133Z,0.70
2022-09-09T18:46:55.659Z,1.20
2022-09-09T18:49:25.571Z,1.02
2022-09-09T18:51:54.161Z,0.60
2022-09-09T18:54:23.901Z,0.80
2022-09-09T18:56:52.912Z,0.60
2022-09-09T18:59:23.693Z,0.97
2022-09-09T19:01:53.206Z,0.80
2022-09-09T19:04:22.246Z,0.80
2022-09-09T19:06:57.640Z,0.65
2022-09-09T19:09:27.574Z,1.30
2022-09-09T19:11:55.451Z,1.02
2022-09-09T19:14:23.558Z,1.02
2022-09-09T19:16:51.683Z,0.80
2022-09-09T19:19:21.485Z,0.70
2022-09-09T19:21:51.540Z,1.20
2022-09-09T19:24:21.365Z,1.30
2022-09-09T19:26:55.189Z,1.30
2022-09-09T19:29:25.935Z,1.25
2022-09-09T19:34:45.701Z,0.80
2022-09-09T19:37:18.525Z,1.20
2022-09-09T19:39:50.842Z,0.87
2022-09-09T19:42:19.235Z,0.90
2022-09-09T19:45:48.837Z,0.70
2022-09-09T19:48:16.897Z,1.10
2022-09-09T19:50:47.600Z,1.17
2022-09-09T19:53:17.917Z,1.52
2022-09-09T19:55:46.182Z,1.58
2022-09-09T19:58:15.027Z,1.30
2022-09-09T20:00:58.508Z,1.20
2022-09-09T20:03:28.280Z,0.82
2022-09-09T20:05:57.063Z,1.23
2022-09-09T20:08:27.338Z,1.33
2022-09-09T20:10:56.285Z,1.00
2022-09-09T20:13:24.371Z,1.10
2022-09-09T20:15:58.648Z,1.30
2022-09-09T20:18:32.254Z,1.02
2022-09-09T20:21:01.013Z,0.93
2022-09-09T20:23:32.283Z,0.90
2022-09-09T20:26:02.996Z,1.10
2022-09-09T20:28:31.261Z,1.00
2022-09-09T20:31:05.824Z,1.10
2022-09-09T20:33:35.823Z,1.00
2022-09-09T20:36:11.504Z,1.10
2022-09-09T20:38:54.179Z,1.30
2022-09-09T20:41:23.666Z,1.30
2022-09-09T20:43:53.542Z,1.10
2022-09-09T20:46:49.109Z,0.80
2022-09-09T20:49:25.628Z,1.02
2022-09-09T20:52:09.429Z,0.93
2022-09-09T20:54:48.578Z,0.73
2022-09-09T20:57:22.074Z,1.30
2022-09-09T20:59:51.052Z,1.10
2022-09-09T21:02:19.418Z,1.40
2022-09-09T21:04:47.356Z,1.20
2022-09-09T21:07:15.292Z,1.10
2022-09-09T21:09:43.135Z,0.80
2022-09-09T21:12:12.301Z,0.80
2022-09-09T21:14:40.219Z,0.77
2022-09-09T21:17:08.394Z,0.70
2022-09-09T21:19:36.288Z,0.70
2022-09-09T21:22:04.507Z,0.57
2022-09-09T21:24:32.290Z,0.40
2022-09-09T21:27:00.700Z,0.60
2022-09-09T21:29:29.993Z,0.70
2022-09-09T21:32:03.805Z,0.90
2022-09-09T21:34:32.086Z,1.00
2022-09-09T21:37:00.203Z,0.63
2022-09-09T21:39:28.066Z,0.77
2022-09-09T21:41:58.150Z,0.63
2022-09-09T21:44:26.911Z,1.10
2022-09-09T21:46:56.183Z,0.90
2022-09-09T21:49:24.011Z,0.80
2022-09-09T21:51:52.326Z,0.70
2022-09-09T21:54:20.629Z,1.00
2022-09-09T21:56:52.251Z,0.80
2022-09-09T21:59:20.450Z,0.90
2022-09-09T22:01:48.702Z,0.98
2022-09-09T22:04:17.938Z,1.17
2022-09-09T22:06:46.607Z,0.98
2022-09-09T22:09:14.448Z,1.00
2022-09-09T22:11:42.614Z,0.90
2022-09-09T22:14:10.515Z,0.77
2022-09-09T22:16:45.753Z,0.77
2022-09-09T22:19:13.995Z,0.90
2022-09-09T22:21:45.481Z,0.70
2022-09-09T22:24:13.598Z,0.90
2022-09-09T22:26:42.409Z,0.63
2022-09-09T22:29:11.385Z,0.60
2022-09-09T22:31:39.486Z,0.80
2022-09-09T22:34:09.170Z,0.90
2022-09-09T22:36:42.118Z,0.60
2022-09-09T22:39:13.928Z,0.73
2022-09-09T22:41:42.650Z,0.90
2022-09-09T22:44:11.128Z,0.98
2022-09-09T22:46:39.851Z,0.90
2022-09-09T22:49:10.892Z,0.80
2022-09-09T22:51:38.869Z,0.70
2022-09-09T22:54:08.034Z,0.83
2022-09-09T22:56:37.589Z,1.00
2022-09-09T22:59:05.843Z,0.93
2022-09-09T23:01:35.169Z,0.70
2022-09-09T23:04:03.368Z,0.80
2022-09-09T23:06:33.894Z,0.80
2022-09-09T23:09:03.721Z,0.80
2022-09-09T23:11:34.266Z,0.90
2022-09-09T23:14:05.439Z,0.90
2022-09-09T23:16:36.069Z,0.83
2022-09-09T23:19:03.965Z,0.90
2022-09-09T23:21:33.120Z,1.08
2022-09-09T23:24:01.736Z,1.00
2022-09-09T23:26:29.788Z,0.80
2022-09-09T23:28:59.201Z,0.88
2022-09-09T23:31:30.136Z,0.93
2022-09-09T23:33:59.095Z,0.82
2022-09-09T23:36:29.445Z,0.90
2022-09-09T23:38:58.367Z,1.10
2022-09-09T23:41:26.960Z,0.90
2022-09-09T23:43:55.327Z,0.70
2022-09-09T23:46:25.167Z,0.70
2022-09-09T23:48:57.817Z,0.60
2022-09-09T23:51:28.127Z,0.60
2022-09-09T23:53:57.541Z,0.60
2022-09-09T23:56:28.141Z,0.80
2022-09-09T23:58:56.415Z,0.90
